createdAt,value
2019-01-19T00:00:14.286Z,2.40
2019-01-19T00:01:14.269Z,2.10
2019-01-19T00:02:14.268Z,2.50
2019-01-19T00:03:14.265Z,2.60
2019-01-19T00:04:14.281Z,2.60
2019-01-19T00:05:14.229Z,2.40
2019-01-19T00:06:14.232Z,2.60
2019-01-19T00:09:21.076Z,2.70
2019-01-19T00:10:21.076Z,2.90
2019-01-19T00:11:21.045Z,2.40
2019-01-19T00:12:28.910Z,2.40
2019-01-19T00:13:21.183Z,2.30
2019-01-19T00:14:21.101Z,2.90
2019-01-19T00:15:21.003Z,2.90
2019-01-19T00:16:21.073Z,2.70
2019-01-19T00:17:20.974Z,2.40
2019-01-19T00:18:20.932Z,2.70
2019-01-19T00:19:20.936Z,2.40
2019-01-19T00:20:20.954Z,2.30
2019-01-19T00:21:28.909Z,2.30
2019-01-19T00:22:20.915Z,2.60
2019-01-19T00:23:20.956Z,2.80
2019-01-19T00:24:20.942Z,2.70
2019-01-19T00:25:20.922Z,3.70
2019-01-19T00:26:20.841Z,2.20
2019-01-19T00:27:20.859Z,2.80
2019-01-19T00:28:20.880Z,2.30
2019-01-19T00:29:20.850Z,2.50
2019-01-19T00:30:20.813Z,2.30
2019-01-19T00:31:21.429Z,2.40
2019-01-19T00:32:20.819Z,2.20
2019-01-19T00:33:20.776Z,2.60
2019-01-19T00:34:20.779Z,2.30
2019-01-19T00:35:20.807Z,2.40
2019-01-19T00:36:20.741Z,2.80
2019-01-19T00:37:22.926Z,2.40
2019-01-19T00:38:20.755Z,2.70
2019-01-19T00:39:20.744Z,2.40
2019-01-19T00:40:20.692Z,2.60
2019-01-19T00:41:20.684Z,2.70
2019-01-19T00:42:20.687Z,2.50
2019-01-19T00:43:20.679Z,2.90
2019-01-19T00:44:20.693Z,2.50
2019-01-19T00:45:20.649Z,2.70
2019-01-19T00:46:20.649Z,2.30
2019-01-19T00:47:20.665Z,3.00
2019-01-19T00:48:20.614Z,2.20
2019-01-19T00:49:20.634Z,2.40
2019-01-19T00:50:20.613Z,2.20
2019-01-19T00:51:20.615Z,2.50
2019-01-19T00:52:20.560Z,3.10
2019-01-19T00:53:20.560Z,2.10
2019-01-19T00:54:20.903Z,2.80
2019-01-19T00:55:20.545Z,2.90
2019-01-19T00:56:20.523Z,2.60
2019-01-19T00:57:20.530Z,2.50
2019-01-19T00:58:20.521Z,2.20
2019-01-19T00:59:20.525Z,2.70
2019-01-19T01:00:20.491Z,2.30
2019-01-19T01:01:20.484Z,2.80
2019-01-19T01:02:20.474Z,2.30
2019-01-19T01:03:20.460Z,2.50
2019-01-19T01:04:20.468Z,2.30
2019-01-19T01:05:25.250Z,2.40
2019-01-19T01:07:31.999Z,2.50
2019-01-19T01:08:39.136Z,2.40
2019-01-19T01:09:31.184Z,2.20
2019-01-19T01:10:38.065Z,2.40
2019-01-19T01:11:39.063Z,2.70
2019-01-19T01:12:39.601Z,2.50
2019-01-19T01:13:31.072Z,2.40
2019-01-19T01:14:31.084Z,2.20
2019-01-19T01:15:30.946Z,2.30
2019-01-19T01:16:30.980Z,2.30
2019-01-19T01:17:30.941Z,2.50
2019-01-19T01:18:30.955Z,2.30
2019-01-19T01:19:30.958Z,2.50
2019-01-19T01:20:39.610Z,2.70
2019-01-19T01:21:30.944Z,3.10
2019-01-19T01:22:31.038Z,1.80
2019-01-19T01:23:30.894Z,2.20
2019-01-19T01:24:30.898Z,3.00
2019-01-19T01:25:38.919Z,3.90
2019-01-19T01:26:37.924Z,2.70
2019-01-19T01:27:38.927Z,2.40
2019-01-19T01:28:37.929Z,2.80
2019-01-19T01:29:30.897Z,3.60
2019-01-19T01:30:38.826Z,2.30
2019-01-19T01:31:38.661Z,2.60
2019-01-19T01:32:30.798Z,3.20
2019-01-19T01:33:39.703Z,2.10
2019-01-19T01:39:11.826Z,2.30
2019-01-19T01:40:11.856Z,2.70
2019-01-19T01:41:11.816Z,3.10
2019-01-19T01:42:11.740Z,2.40
2019-01-19T01:43:11.805Z,2.50
2019-01-19T01:44:11.738Z,3.10
2019-01-19T01:45:11.751Z,3.10
2019-01-19T01:46:11.699Z,2.60
2019-01-19T01:47:11.702Z,2.60
2019-01-19T01:48:11.693Z,2.20
2019-01-19T01:49:11.696Z,2.00
2019-01-19T01:50:11.698Z,2.30
2019-01-19T01:51:11.680Z,2.30
2019-01-19T01:52:11.662Z,3.10
2019-01-19T01:53:12.641Z,2.70
2019-01-19T01:54:11.679Z,2.10
2019-01-19T01:55:11.631Z,2.70
2019-01-19T01:56:11.617Z,2.60
2019-01-19T01:57:11.601Z,2.80
2019-01-19T01:58:11.597Z,3.00
2019-01-19T01:59:11.571Z,2.80
2019-01-19T02:00:11.574Z,2.20
2019-01-19T02:01:11.576Z,2.30
2019-01-19T02:02:11.538Z,2.90
2019-01-19T02:03:11.516Z,2.10
2019-01-19T02:04:11.539Z,2.50
2019-01-19T02:05:14.166Z,2.80
2019-01-19T02:06:11.499Z,2.00
2019-01-19T02:07:11.519Z,2.30
2019-01-19T02:08:11.495Z,4.20
2019-01-19T02:10:23.108Z,3.10
2019-01-19T02:11:31.204Z,2.60
2019-01-19T02:12:23.187Z,2.80
2019-01-19T02:13:23.165Z,2.90
2019-01-19T02:14:23.093Z,2.30
2019-01-19T02:15:23.030Z,2.20
2019-01-19T02:16:23.014Z,2.40
2019-01-19T02:17:31.143Z,2.40
2019-01-19T02:18:23.135Z,2.70
2019-01-19T02:19:23.059Z,2.60
2019-01-19T02:20:24.049Z,2.20
2019-01-19T02:21:22.997Z,3.00
2019-01-19T02:22:22.959Z,2.20
2019-01-19T02:23:22.960Z,3.10
2019-01-19T02:24:22.943Z,2.70
2019-01-19T02:25:22.973Z,2.20
2019-01-19T02:26:23.498Z,2.00
2019-01-19T02:27:22.943Z,3.20
2019-01-19T02:28:22.904Z,2.50
2019-01-19T02:29:22.884Z,2.50
2019-01-19T02:30:22.905Z,2.10
2019-01-19T02:31:22.877Z,2.80
2019-01-19T02:32:22.862Z,2.70
2019-01-19T02:33:22.893Z,3.30
2019-01-19T02:34:22.948Z,3.20
2019-01-19T02:35:22.843Z,2.50
2019-01-19T02:36:22.834Z,2.30
2019-01-19T02:37:22.808Z,2.20
2019-01-19T02:38:22.796Z,2.80
2019-01-19T02:39:22.757Z,2.20
2019-01-19T02:40:22.784Z,2.50
2019-01-19T02:41:23.508Z,2.40
2019-01-19T02:42:22.750Z,2.20
2019-01-19T02:43:22.773Z,2.50
2019-01-19T02:44:22.738Z,3.20
2019-01-19T02:45:22.725Z,3.20
2019-01-19T02:46:30.839Z,2.40
2019-01-19T02:47:30.539Z,2.80
2019-01-19T02:48:30.594Z,2.90
2019-01-19T02:49:31.615Z,2.70
2019-01-19T02:50:23.095Z,2.70
2019-01-19T02:51:22.640Z,3.10
2019-01-19T02:52:22.738Z,2.00
2019-01-19T02:53:22.612Z,2.50
2019-01-19T02:54:22.607Z,2.20
2019-01-19T02:55:22.645Z,2.80
2019-01-19T02:56:22.659Z,3.30
2019-01-19T02:57:22.605Z,3.00
2019-01-19T02:58:22.596Z,3.50
2019-01-19T02:59:22.583Z,2.40
2019-01-19T03:00:22.574Z,2.60
2019-01-19T03:01:22.537Z,2.90
2019-01-19T03:02:22.618Z,2.50
2019-01-19T03:03:23.070Z,2.80
2019-01-19T03:04:23.066Z,2.80
2019-01-19T03:05:22.512Z,3.10
2019-01-19T03:06:29.591Z,3.40
2019-01-19T03:07:30.168Z,2.90
2019-01-19T03:08:29.603Z,3.10
2019-01-19T03:09:30.543Z,3.00
2019-01-19T03:10:22.525Z,3.30
2019-01-19T03:11:22.498Z,2.90
2019-01-19T03:12:22.410Z,2.70
2019-01-19T03:13:22.413Z,3.20
2019-01-19T03:14:22.431Z,3.10
2019-01-19T03:15:22.408Z,3.10
2019-01-19T03:16:22.387Z,3.00
2019-01-19T03:17:22.375Z,3.10
2019-01-19T03:18:22.370Z,2.80
2019-01-19T03:19:22.346Z,2.90
2019-01-19T03:20:22.346Z,2.80
2019-01-19T03:21:22.337Z,2.70
2019-01-19T03:22:22.314Z,3.30
2019-01-19T03:23:23.164Z,2.90
2019-01-19T03:24:22.333Z,3.40
2019-01-19T03:25:22.308Z,2.60
2019-01-19T03:26:22.303Z,2.60
2019-01-19T03:27:22.259Z,2.50
2019-01-19T03:28:22.255Z,2.90
2019-01-19T03:29:22.255Z,2.90
2019-01-19T03:30:22.279Z,2.80
2019-01-19T03:31:22.247Z,3.40
2019-01-19T03:32:22.232Z,2.80
2019-01-19T03:33:22.248Z,3.20
2019-01-19T03:34:22.207Z,2.70
2019-01-19T03:35:22.250Z,2.70
2019-01-19T03:36:22.183Z,2.60
2019-01-19T03:37:22.184Z,3.20
2019-01-19T03:38:22.211Z,2.80
2019-01-19T03:39:22.673Z,3.10
2019-01-19T03:40:22.722Z,3.50
2019-01-19T03:41:22.148Z,3.00
2019-01-19T03:42:22.151Z,3.60
2019-01-19T03:43:22.111Z,3.00
2019-01-19T03:44:22.132Z,3.40
2019-01-19T03:45:22.099Z,2.60
2019-01-19T03:46:22.073Z,3.20
2019-01-19T03:47:22.079Z,2.80
2019-01-19T03:48:22.040Z,2.90
2019-01-19T03:49:22.036Z,2.60
2019-01-19T03:50:22.052Z,3.70
2019-01-19T03:51:22.660Z,3.40
2019-01-19T03:52:22.021Z,2.60
2019-01-19T03:53:21.991Z,4.10
2019-01-19T03:54:21.988Z,3.00
2019-01-19T03:55:21.983Z,3.40
2019-01-19T03:56:21.990Z,3.00
2019-01-19T03:57:21.955Z,2.90
2019-01-19T03:58:21.956Z,3.10
2019-01-19T03:59:21.934Z,2.80
2019-01-19T04:00:21.926Z,3.50
2019-01-19T04:01:21.923Z,2.80
2019-01-19T04:02:21.895Z,2.80
2019-01-19T04:03:21.880Z,3.50
2019-01-19T04:04:21.918Z,2.80
2019-01-19T04:07:46.781Z,3.30
2019-01-19T04:08:45.949Z,3.40
2019-01-19T04:09:45.983Z,3.20
2019-01-19T04:10:46.008Z,3.80
2019-01-19T04:11:45.924Z,3.30
2019-01-19T04:12:45.867Z,2.90
2019-01-19T04:13:45.806Z,3.50
2019-01-19T04:14:45.855Z,3.00
2019-01-19T04:15:45.870Z,3.90
2019-01-19T04:16:45.817Z,3.20
2019-01-19T04:17:45.886Z,3.30
2019-01-19T04:18:45.806Z,3.80
2019-01-19T04:19:45.789Z,3.10
2019-01-19T04:20:45.838Z,3.30
2019-01-19T04:21:45.780Z,3.90
2019-01-19T04:22:45.746Z,3.20
2019-01-19T04:23:45.799Z,3.60
2019-01-19T04:24:45.767Z,2.80
2019-01-19T04:25:45.802Z,3.20
2019-01-19T04:26:45.743Z,3.60
2019-01-19T04:27:45.695Z,3.40
2019-01-19T04:28:45.725Z,3.50
2019-01-19T04:29:45.737Z,3.40
2019-01-19T04:30:45.698Z,3.50
2019-01-19T04:31:45.667Z,3.60
2019-01-19T04:32:45.658Z,3.50
2019-01-19T04:33:45.656Z,3.00
2019-01-19T04:34:45.654Z,3.40
2019-01-19T04:35:45.641Z,3.10
2019-01-19T04:36:45.637Z,3.50
2019-01-19T04:37:45.639Z,2.90
2019-01-19T04:38:45.592Z,3.20
2019-01-19T04:39:45.575Z,3.20
2019-01-19T04:40:45.648Z,3.00
2019-01-19T04:41:45.709Z,3.40
2019-01-19T04:42:45.576Z,2.80
2019-01-19T04:43:45.531Z,3.00
2019-01-19T04:44:45.507Z,2.90
2019-01-19T04:45:45.535Z,2.90
2019-01-19T04:46:45.495Z,3.40
2019-01-19T04:47:45.485Z,3.20
2019-01-19T04:48:45.496Z,2.70
2019-01-19T04:49:45.466Z,3.40
2019-01-19T04:50:45.468Z,3.10
2019-01-19T04:51:45.467Z,3.10
2019-01-19T04:52:45.462Z,3.30
2019-01-19T04:53:45.448Z,3.70
2019-01-19T04:54:45.423Z,2.60
2019-01-19T04:55:45.455Z,4.10
2019-01-19T04:56:45.452Z,3.00
2019-01-19T04:57:45.387Z,2.60
2019-01-19T04:58:45.367Z,3.40
2019-01-19T04:59:45.341Z,3.30
2019-01-19T05:00:45.333Z,2.60
2019-01-19T05:01:45.351Z,3.40
2019-01-19T05:02:45.425Z,3.40
2019-01-19T05:03:45.335Z,3.30
2019-01-19T05:04:45.340Z,3.10
2019-01-19T05:05:53.401Z,3.80
2019-01-19T05:06:53.088Z,3.00
2019-01-19T05:07:53.515Z,3.50
2019-01-19T05:08:53.454Z,3.90
2019-01-19T05:09:56.543Z,4.10
2019-01-19T05:10:53.145Z,3.80
2019-01-19T05:11:52.505Z,3.40
2019-01-19T05:12:45.527Z,3.40
2019-01-19T05:13:54.588Z,3.00
2019-01-19T05:14:56.091Z,2.50
2019-01-19T05:15:52.383Z,3.30
2019-01-19T05:16:45.451Z,2.90
2019-01-19T05:17:52.456Z,3.10
2019-01-19T05:18:45.391Z,3.80
2019-01-19T05:19:46.273Z,3.20
2019-01-19T05:20:45.202Z,3.00
2019-01-19T05:21:45.394Z,3.00
2019-01-19T05:22:45.164Z,3.10
2019-01-19T05:23:45.143Z,3.30
2019-01-19T05:24:45.102Z,2.80
2019-01-19T05:25:47.001Z,2.40
2019-01-19T05:26:45.092Z,2.70
2019-01-19T05:27:45.061Z,2.80
2019-01-19T05:28:45.089Z,3.50
2019-01-19T05:29:45.025Z,3.30
2019-01-19T05:30:45.048Z,3.60
2019-01-19T05:31:45.051Z,3.30
2019-01-19T05:32:45.116Z,2.80
2019-01-19T05:33:45.031Z,2.90
2019-01-19T05:34:44.996Z,3.60
2019-01-19T05:35:44.970Z,2.80
2019-01-19T05:36:45.464Z,3.00
2019-01-19T05:37:45.987Z,3.30
2019-01-19T05:38:44.965Z,3.10
2019-01-19T05:39:44.925Z,3.20
2019-01-19T05:40:44.904Z,2.80
2019-01-19T05:41:44.912Z,3.50
2019-01-19T05:43:55.641Z,3.80
2019-01-19T05:45:03.454Z,4.60
2019-01-19T05:45:55.666Z,3.70
2019-01-19T05:46:55.686Z,3.40
2019-01-19T05:47:55.624Z,2.90
2019-01-19T05:48:55.697Z,3.60
2019-01-19T05:49:55.501Z,3.10
2019-01-19T05:50:55.486Z,2.90
2019-01-19T05:51:56.461Z,3.70
2019-01-19T05:52:55.423Z,3.20
2019-01-19T05:53:55.507Z,3.10
2019-01-19T05:54:55.474Z,3.20
2019-01-19T05:55:56.940Z,2.80
2019-01-19T05:56:55.438Z,3.30
2019-01-19T05:57:55.599Z,3.00
2019-01-19T05:58:55.545Z,3.10
2019-01-19T05:59:55.364Z,3.30
2019-01-19T06:00:55.389Z,3.20
2019-01-19T06:01:55.887Z,3.60
2019-01-19T06:02:55.361Z,3.40
2019-01-19T06:03:55.491Z,3.00
2019-01-19T06:04:55.322Z,4.00
2019-01-19T06:05:55.325Z,3.10
2019-01-19T06:07:05.832Z,3.50
2019-01-19T06:08:02.992Z,3.10
2019-01-19T06:09:05.046Z,2.70
2019-01-19T06:10:03.809Z,3.40
2019-01-19T06:12:08.345Z,3.50
2019-01-19T06:13:15.486Z,3.30
2019-01-19T06:14:07.644Z,3.50
2019-01-19T06:15:07.585Z,3.30
2019-01-19T06:16:07.465Z,3.30
2019-01-19T06:17:07.540Z,3.10
2019-01-19T06:18:07.361Z,3.20
2019-01-19T06:19:07.287Z,3.00
2019-01-19T06:20:07.281Z,4.20
2019-01-19T06:21:07.286Z,3.10
2019-01-19T06:22:07.294Z,3.00
2019-01-19T06:23:07.272Z,3.40
2019-01-19T06:24:07.266Z,3.50
2019-01-19T06:25:07.263Z,3.80
2019-01-19T06:26:16.444Z,3.50
2019-01-19T06:27:07.465Z,3.10
2019-01-19T06:28:07.437Z,3.30
2019-01-19T06:29:07.383Z,3.30
2019-01-19T06:30:07.256Z,3.20
2019-01-19T06:31:07.237Z,2.80
2019-01-19T06:32:07.218Z,3.40
2019-01-19T06:33:07.224Z,2.90
2019-01-19T06:34:07.222Z,2.90
2019-01-19T06:35:07.144Z,4.20
2019-01-19T06:36:15.348Z,3.00
2019-01-19T06:37:07.472Z,2.60
2019-01-19T06:38:07.392Z,2.70
2019-01-19T06:39:07.131Z,2.80
2019-01-19T06:40:07.184Z,4.10
2019-01-19T06:41:07.109Z,3.00
2019-01-19T06:42:07.154Z,3.30
2019-01-19T06:43:07.093Z,3.10
2019-01-19T06:44:07.111Z,3.30
2019-01-19T06:45:07.074Z,3.20
2019-01-19T06:46:07.113Z,3.00
2019-01-19T06:47:07.052Z,3.10
2019-01-19T06:48:07.098Z,2.80
2019-01-19T06:49:07.028Z,3.60
2019-01-19T06:50:07.003Z,3.10
2019-01-19T06:51:07.871Z,3.60
2019-01-19T06:52:07.902Z,3.40
2019-01-19T06:53:06.979Z,3.60
2019-01-19T06:54:06.985Z,3.10
2019-01-19T06:55:07.023Z,3.20
2019-01-19T06:56:07.040Z,3.40
2019-01-19T06:57:06.958Z,2.90
2019-01-19T06:58:06.949Z,3.00
2019-01-19T06:59:06.915Z,3.00
2019-01-19T07:00:06.902Z,3.30
2019-01-19T07:01:16.066Z,3.20
2019-01-19T07:02:07.661Z,4.00
2019-01-19T07:03:07.082Z,4.00
2019-01-19T07:04:06.920Z,3.60
2019-01-19T07:05:06.966Z,2.90
2019-01-19T07:08:29.119Z,3.30
2019-01-19T07:09:37.094Z,3.40
2019-01-19T07:10:36.209Z,3.80
2019-01-19T07:11:37.288Z,4.10
2019-01-19T07:13:39.844Z,3.40
2019-01-19T07:14:39.826Z,4.00
2019-01-19T07:15:39.834Z,2.50
2019-01-19T07:16:39.680Z,2.90
2019-01-19T07:17:39.810Z,3.60
2019-01-19T07:18:39.660Z,2.40
2019-01-19T07:19:41.611Z,2.60
2019-01-19T07:20:39.611Z,3.20
2019-01-19T07:21:39.619Z,3.90
2019-01-19T07:22:40.306Z,3.30
2019-01-19T07:23:40.646Z,2.70
2019-01-19T07:24:39.966Z,3.40
2019-01-19T07:25:39.572Z,2.40
2019-01-19T07:26:39.596Z,2.60
2019-01-19T07:27:39.561Z,3.40
2019-01-19T07:28:39.566Z,3.20
2019-01-19T07:29:39.572Z,2.40
2019-01-19T07:30:40.032Z,2.90
2019-01-19T07:31:39.521Z,2.80
2019-01-19T07:32:39.585Z,2.80
2019-01-19T07:33:39.500Z,4.00
2019-01-19T07:34:40.498Z,3.40
2019-01-19T07:35:39.500Z,2.70
2019-01-19T07:36:46.822Z,2.70
2019-01-19T07:37:47.348Z,4.10
2019-01-19T07:39:05.456Z,3.00
2019-01-19T07:39:40.289Z,2.80
2019-01-19T07:40:39.482Z,3.10
2019-01-19T07:41:39.427Z,2.70
2019-01-19T07:42:39.444Z,2.80
2019-01-19T07:43:39.485Z,2.80
2019-01-19T07:44:39.366Z,3.20
2019-01-19T07:45:39.402Z,2.80
2019-01-19T07:46:39.374Z,3.00
2019-01-19T07:47:39.628Z,3.30
2019-01-19T07:48:39.327Z,3.00
2019-01-19T07:49:39.342Z,2.80
2019-01-19T07:50:39.325Z,4.40
2019-01-19T07:51:39.288Z,3.40
2019-01-19T07:52:39.336Z,2.60
2019-01-19T07:53:39.270Z,3.70
2019-01-19T07:54:39.303Z,3.30
2019-01-19T07:55:39.247Z,3.00
2019-01-19T07:56:39.234Z,2.70
2019-01-19T07:57:40.595Z,2.20
2019-01-19T07:58:39.205Z,2.90
2019-01-19T07:59:39.475Z,2.30
2019-01-19T08:00:47.324Z,2.20
2019-01-19T08:01:39.401Z,2.80
2019-01-19T08:02:39.313Z,2.90
2019-01-19T08:03:39.429Z,2.80
2019-01-19T08:04:39.203Z,2.40
2019-01-19T08:05:39.210Z,2.50
2019-01-19T08:06:40.131Z,2.80
2019-01-19T08:07:39.157Z,3.70
2019-01-19T08:08:49.010Z,2.40
2019-01-19T08:09:47.631Z,2.40
2019-01-19T08:10:39.373Z,2.30
2019-01-19T08:11:39.800Z,2.70
2019-01-19T08:12:39.195Z,2.20
2019-01-19T08:13:39.265Z,3.20
2019-01-19T08:14:39.067Z,2.10
2019-01-19T08:15:39.030Z,2.70
2019-01-19T08:16:39.113Z,2.60
2019-01-19T08:17:39.031Z,2.70
2019-01-19T08:18:39.030Z,2.30
2019-01-19T08:19:39.151Z,2.10
2019-01-19T08:20:38.987Z,2.80
2019-01-19T08:21:38.987Z,2.90
2019-01-19T08:22:39.735Z,3.60
2019-01-19T08:23:39.003Z,2.40
2019-01-19T08:24:38.971Z,3.10
2019-01-19T08:25:38.955Z,3.80
2019-01-19T08:26:38.930Z,2.60
2019-01-19T08:27:38.920Z,2.50
2019-01-19T08:29:49.870Z,3.20
2019-01-19T08:30:49.968Z,3.10
2019-01-19T08:31:49.600Z,2.30
2019-01-19T08:32:49.867Z,2.60
2019-01-19T08:33:49.564Z,3.30
2019-01-19T08:34:49.499Z,2.70
2019-01-19T08:35:49.551Z,3.10
2019-01-19T08:36:49.496Z,2.80
2019-01-19T08:37:49.505Z,3.00
2019-01-19T08:38:50.353Z,3.50
2019-01-19T08:39:58.609Z,2.70
2019-01-19T08:40:50.236Z,3.20
2019-01-19T08:43:18.929Z,2.70
2019-01-19T08:45:58.490Z,3.10
2019-01-19T08:50:17.815Z,4.00
2019-01-19T08:51:26.253Z,3.40
2019-01-19T08:53:34.250Z,3.20
2019-01-19T08:54:44.614Z,2.70
2019-01-19T08:55:43.171Z,2.60
2019-01-19T08:56:42.712Z,2.30
2019-01-19T08:57:44.166Z,3.40
2019-01-19T08:58:41.189Z,2.70
2019-01-19T08:59:41.966Z,3.00
2019-01-19T09:00:34.101Z,2.80
2019-01-19T09:01:33.922Z,2.60
2019-01-19T09:02:33.957Z,2.20
2019-01-19T09:03:41.967Z,2.30
2019-01-19T09:04:40.956Z,2.60
2019-01-19T09:05:41.785Z,3.20
2019-01-19T09:06:50.973Z,3.20
2019-01-19T09:07:44.913Z,2.60
2019-01-19T09:08:34.125Z,5.30
2019-01-19T09:09:34.976Z,2.30
2019-01-19T09:10:33.837Z,2.40
2019-01-19T09:11:33.864Z,2.70
2019-01-19T09:12:33.715Z,2.80
2019-01-19T09:13:33.730Z,2.50
2019-01-19T09:16:03.472Z,3.20
2019-01-19T09:17:03.452Z,2.60
2019-01-19T09:18:03.299Z,2.90
2019-01-19T09:19:03.266Z,3.00
2019-01-19T09:20:03.449Z,2.30
2019-01-19T09:21:03.185Z,2.90
2019-01-19T09:22:03.206Z,2.50
2019-01-19T09:23:03.192Z,3.30
2019-01-19T09:24:03.160Z,2.50
2019-01-19T09:25:03.134Z,3.60
2019-01-19T09:26:03.173Z,2.70
2019-01-19T09:27:03.115Z,3.10
2019-01-19T09:28:03.178Z,2.50
2019-01-19T09:29:03.668Z,2.30
2019-01-19T09:30:03.667Z,2.40
2019-01-19T09:31:03.145Z,2.40
2019-01-19T09:32:03.680Z,3.30
2019-01-19T09:33:03.718Z,2.30
2019-01-19T09:34:03.043Z,2.50
2019-01-19T09:35:03.067Z,1.70
2019-01-19T09:36:03.741Z,2.60
2019-01-19T09:37:03.019Z,2.80
2019-01-19T09:38:03.015Z,2.40
2019-01-19T09:39:02.999Z,2.80
2019-01-19T09:40:03.015Z,1.90
2019-01-19T09:41:02.972Z,3.00
2019-01-19T09:42:03.658Z,2.80
2019-01-19T09:43:02.995Z,2.10
2019-01-19T09:44:02.974Z,1.80
2019-01-19T09:45:02.947Z,3.30
2019-01-19T09:46:02.891Z,2.70
2019-01-19T09:47:02.993Z,3.60
2019-01-19T09:48:02.942Z,3.70
2019-01-19T09:49:03.687Z,2.20
2019-01-19T09:50:02.909Z,2.70
2019-01-19T09:51:02.838Z,1.80
2019-01-19T09:52:02.832Z,3.10
2019-01-19T09:53:04.676Z,2.40
2019-01-19T09:54:02.824Z,2.20
2019-01-19T09:55:02.797Z,2.40
2019-01-19T09:56:02.808Z,1.90
2019-01-19T09:57:02.769Z,2.20
2019-01-19T09:58:02.760Z,1.70
2019-01-19T09:59:02.767Z,2.20
2019-01-19T10:00:03.635Z,2.00
2019-01-19T10:01:02.735Z,1.40
2019-01-19T10:02:02.740Z,1.60
2019-01-19T10:03:02.735Z,1.60
2019-01-19T10:04:02.720Z,1.50
2019-01-19T10:05:02.684Z,1.30
2019-01-19T10:06:02.697Z,2.00
2019-01-19T10:07:10.880Z,2.60
2019-01-19T10:08:02.817Z,1.00
2019-01-19T10:09:02.788Z,1.80
2019-01-19T10:10:02.755Z,2.10
2019-01-19T10:11:02.743Z,1.20
2019-01-19T10:12:03.329Z,2.10
2019-01-19T10:13:02.946Z,1.50
2019-01-19T10:14:03.247Z,1.20
2019-01-19T10:15:02.645Z,1.50
2019-01-19T10:16:02.646Z,1.50
2019-01-19T10:17:03.251Z,2.00
2019-01-19T10:18:04.289Z,1.60
2019-01-19T10:19:03.202Z,1.50
2019-01-19T10:20:16.522Z,1.80
2019-01-19T10:21:11.698Z,1.20
2019-01-19T10:22:11.915Z,2.20
2019-01-19T10:23:10.779Z,1.60
2019-01-19T10:24:02.600Z,1.00
2019-01-19T10:25:02.620Z,1.70
2019-01-19T10:26:02.716Z,1.50
2019-01-19T10:27:03.480Z,1.50
2019-01-19T10:28:02.499Z,2.00
2019-01-19T10:29:02.467Z,1.70
2019-01-19T10:30:02.444Z,2.40
2019-01-19T10:31:02.421Z,1.70
2019-01-19T10:32:02.431Z,1.80
2019-01-19T10:33:02.376Z,1.40
2019-01-19T10:34:02.400Z,1.30
2019-01-19T10:35:02.373Z,1.70
2019-01-19T10:36:02.349Z,1.10
2019-01-19T10:37:02.353Z,1.50
2019-01-19T10:38:02.337Z,1.50
2019-01-19T10:39:03.251Z,1.90
2019-01-19T10:40:03.327Z,2.70
2019-01-19T10:41:02.334Z,1.90
2019-01-19T10:42:03.117Z,2.00
2019-01-19T10:43:02.311Z,2.20
2019-01-19T10:44:03.316Z,1.10
2019-01-19T10:45:02.264Z,1.30
2019-01-19T10:46:02.779Z,1.30
2019-01-19T10:47:02.250Z,2.30
2019-01-19T10:48:02.230Z,2.00
2019-01-19T10:49:02.246Z,1.30
2019-01-19T10:50:02.215Z,1.30
2019-01-19T10:51:02.207Z,2.00
2019-01-19T10:52:02.226Z,2.70
2019-01-19T10:53:02.187Z,1.40
2019-01-19T10:54:02.203Z,1.40
2019-01-19T10:55:02.191Z,1.60
2019-01-19T10:56:02.144Z,1.40
2019-01-19T10:57:02.137Z,2.00
2019-01-19T10:58:02.123Z,1.40
2019-01-19T10:59:02.141Z,1.00
2019-01-19T11:00:02.247Z,1.40
2019-01-19T11:01:02.096Z,1.90
2019-01-19T11:02:02.796Z,1.20
2019-01-19T11:03:02.067Z,1.60
2019-01-19T11:04:05.484Z,2.50
2019-01-19T11:05:03.160Z,2.40
2019-01-19T11:06:02.177Z,1.50
2019-01-19T11:07:02.964Z,2.40
2019-01-19T11:08:03.942Z,2.20
2019-01-19T11:09:03.848Z,2.20
2019-01-19T11:10:03.031Z,2.50
2019-01-19T11:11:02.075Z,2.50
2019-01-19T11:12:02.222Z,2.10
2019-01-19T11:13:02.820Z,2.30
2019-01-19T11:14:02.173Z,2.20
2019-01-19T11:15:02.837Z,2.40
2019-01-19T11:16:02.143Z,1.90
2019-01-19T11:17:16.982Z,2.50
2019-01-19T11:18:03.734Z,1.30
2019-01-19T11:19:13.256Z,1.40
2019-01-19T11:20:02.392Z,2.60
2019-01-19T11:22:36.977Z,1.60
2019-01-19T11:23:39.919Z,1.50
2019-01-19T11:24:38.671Z,2.00
2019-01-19T11:25:37.511Z,2.00
2019-01-19T11:26:36.519Z,1.30
2019-01-19T11:27:35.890Z,1.70
2019-01-19T11:28:46.212Z,2.80
2019-01-19T11:29:44.253Z,1.80
2019-01-19T11:32:07.940Z,2.70
2019-01-19T11:33:08.024Z,2.60
2019-01-19T11:34:08.950Z,3.10
2019-01-19T11:35:07.776Z,2.30
2019-01-19T11:36:07.934Z,1.40
2019-01-19T11:37:07.796Z,1.40
2019-01-19T11:38:11.860Z,1.80
2019-01-19T11:39:07.729Z,2.10
2019-01-19T11:40:07.723Z,1.20
2019-01-19T11:41:07.724Z,1.50
2019-01-19T11:42:07.724Z,2.50
2019-01-19T11:43:08.250Z,2.20
2019-01-19T11:44:09.313Z,2.10
2019-01-19T11:45:07.698Z,2.50
2019-01-19T11:46:07.689Z,2.40
2019-01-19T11:47:07.726Z,2.40
2019-01-19T11:48:07.674Z,2.40
2019-01-19T11:49:07.742Z,1.80
2019-01-19T11:50:08.321Z,3.20
2019-01-19T11:51:08.756Z,1.80
2019-01-19T11:52:07.595Z,1.50
2019-01-19T11:53:07.582Z,2.10
2019-01-19T11:54:07.628Z,2.20
2019-01-19T11:55:07.616Z,1.90
2019-01-19T11:56:12.238Z,1.30
2019-01-19T11:57:14.816Z,2.30
2019-01-19T11:58:08.204Z,2.80
2019-01-19T11:59:16.340Z,2.00
2019-01-19T12:00:07.578Z,1.70
2019-01-19T12:01:19.385Z,1.60
2019-01-19T12:02:15.463Z,2.00
2019-01-19T12:03:15.650Z,1.50
2019-01-19T12:04:15.595Z,1.50
2019-01-19T12:05:15.549Z,2.00
2019-01-19T12:06:16.043Z,1.80
2019-01-19T12:07:18.444Z,1.00
2019-01-19T12:08:07.844Z,1.30
2019-01-19T12:09:07.588Z,1.60
2019-01-19T12:10:14.861Z,2.50
2019-01-19T12:11:07.620Z,1.80
2019-01-19T12:12:07.771Z,2.20
2019-01-19T12:13:07.453Z,2.10
2019-01-19T12:14:07.642Z,1.90
2019-01-19T12:15:09.128Z,1.60
2019-01-19T12:16:07.386Z,1.10
2019-01-19T12:17:07.350Z,0.90
2019-01-19T12:18:07.320Z,1.30
2019-01-19T12:19:07.311Z,1.00
2019-01-19T12:20:07.303Z,1.60
2019-01-19T12:21:16.100Z,1.50
2019-01-19T12:22:07.416Z,1.70
2019-01-19T12:23:07.605Z,1.10
2019-01-19T12:24:08.040Z,1.30
2019-01-19T12:25:07.540Z,1.80
2019-01-19T12:26:07.253Z,1.30
2019-01-19T12:27:07.331Z,1.50
2019-01-19T12:28:07.200Z,1.00
2019-01-19T12:29:07.223Z,1.70
2019-01-19T12:30:07.358Z,1.50
2019-01-19T12:31:07.177Z,1.70
2019-01-19T12:32:07.183Z,1.40
2019-01-19T12:33:07.166Z,0.90
2019-01-19T12:34:14.221Z,1.80
2019-01-19T12:35:07.659Z,1.70
2019-01-19T12:38:28.763Z,1.90
2019-01-19T12:39:29.251Z,1.80
2019-01-19T12:40:28.445Z,1.60
2019-01-19T12:41:28.783Z,2.60
2019-01-19T12:42:28.449Z,1.20
2019-01-19T12:43:36.262Z,1.70
2019-01-19T12:47:54.020Z,2.80
2019-01-19T12:50:20.289Z,2.60
2019-01-19T12:54:00.287Z,1.90
2019-01-19T12:55:12.356Z,1.50
2019-01-19T12:56:29.703Z,2.70
2019-01-19T12:58:45.635Z,2.80
2019-01-19T13:02:14.268Z,2.20
2019-01-19T13:03:13.572Z,2.20
2019-01-19T13:04:13.577Z,3.50
2019-01-19T13:05:13.117Z,2.20
2019-01-19T13:06:13.609Z,2.10
2019-01-19T13:07:13.083Z,2.00
2019-01-19T13:08:13.885Z,1.90
2019-01-19T13:09:13.000Z,2.30
2019-01-19T13:10:13.039Z,2.00
2019-01-19T13:12:25.100Z,2.40
2019-01-19T13:13:24.970Z,1.80
2019-01-19T13:14:24.682Z,3.20
2019-01-19T13:15:24.951Z,1.30
2019-01-19T13:16:24.615Z,2.30
2019-01-19T13:17:25.459Z,1.90
2019-01-19T13:18:24.535Z,2.10
2019-01-19T13:19:24.539Z,2.10
2019-01-19T13:20:25.454Z,2.50
2019-01-19T13:21:24.515Z,2.30
2019-01-19T13:22:24.531Z,2.90
2019-01-19T13:23:24.495Z,1.90
2019-01-19T13:24:27.499Z,2.30
2019-01-19T13:25:24.539Z,1.80
2019-01-19T13:26:24.496Z,2.70
2019-01-19T13:27:24.468Z,2.00
2019-01-19T13:28:24.493Z,2.10
2019-01-19T13:29:24.511Z,2.10
2019-01-19T13:30:24.466Z,2.20
2019-01-19T13:31:24.481Z,2.40
2019-01-19T13:32:24.706Z,1.70
2019-01-19T13:33:24.430Z,1.80
2019-01-19T13:34:24.419Z,2.90
2019-01-19T13:35:32.897Z,2.50
2019-01-19T13:36:32.258Z,3.10
2019-01-19T13:37:25.786Z,1.80
2019-01-19T13:38:24.720Z,1.80
2019-01-19T13:39:24.865Z,1.80
2019-01-19T13:40:24.733Z,2.40
2019-01-19T13:41:24.313Z,2.60
2019-01-19T13:42:24.349Z,2.60
2019-01-19T13:43:24.494Z,2.10
2019-01-19T13:44:24.252Z,2.80
2019-01-19T13:45:24.340Z,2.30
2019-01-19T13:46:24.279Z,2.20
2019-01-19T13:47:25.017Z,3.00
2019-01-19T13:48:24.248Z,2.20
2019-01-19T13:49:24.232Z,2.50
2019-01-19T13:50:24.278Z,2.70
2019-01-19T13:51:24.259Z,2.10
2019-01-19T13:52:25.601Z,2.10
2019-01-19T13:53:24.215Z,2.10
2019-01-19T13:54:24.200Z,1.70
2019-01-19T13:55:24.197Z,2.40
2019-01-19T13:56:24.165Z,2.40
2019-01-19T13:57:24.178Z,2.70
2019-01-19T13:58:24.185Z,2.50
2019-01-19T13:59:24.197Z,2.30
2019-01-19T14:00:24.140Z,2.20
2019-01-19T14:01:25.129Z,2.40
2019-01-19T14:02:24.070Z,2.60
2019-01-19T14:03:24.095Z,2.70
2019-01-19T14:04:24.088Z,2.40